Time;durP1;ratioP1;P1;durP2;ratioP2;P2;SDS_P1;SDS_P2;PMS_P1;PMS_P2;Temp;Humidity;BMP_temperature;BMP_pressure;BME280_temperature;BME280_humidity;BME280_pressure;Samples;Min_cycle;Max_cycle;Signal;HPM_P1;HPM_P2
2022/01/14 00:00:01;;;;;;;78.33;27.97;;;;;;;0.90;100.00;103778.06;5066569;28;20042;-66
2022/01/14 00:02:26;;;;;;;111.87;27.73;;;;;;;0.84;100.00;103777.34;5061558;28;20385;-67
2022/01/14 00:04:52;;;;;;;54.80;26.07;;;;;;;0.82;100.00;103789.03;5063584;28;20135;-67
2022/01/14 00:07:17;;;;;;;57.37;24.53;;;;;;;0.82;100.00;103783.91;5051893;28;20239;-67
2022/01/14 00:09:42;;;;;;;53.13;26.60;;;;;;;0.83;100.00;103783.16;5060665;28;20055;-66
2022/01/14 00:12:16;;;;;;;64.57;25.47;;;;;;;0.78;100.00;103782.63;5057053;28;20032;-66
2022/01/14 00:14:44;;;;;;;86.83;26.20;;;;;;;0.74;100.00;103780.44;5063722;28;20068;-66
2022/01/14 00:17:13;;;;;;;59.57;23.67;;;;;;;0.72;100.00;103771.69;5055952;28;20036;-67
2022/01/14 00:19:39;;;;;;;55.57;23.27;;;;;;;0.71;100.00;103775.91;5064440;28;20040;-67
2022/01/14 00:22:10;;;;;;;87.63;27.13;;;;;;;0.67;100.00;103773.69;5060548;28;20464;-67
2022/01/14 00:33:09;;;;;;;48.33;23.27;;;;;;;0.66;100.00;103761.66;5056465;28;20113;-66
2022/01/14 00:35:37;;;;;;;50.73;23.07;;;;;;;0.64;100.00;103763.13;5054983;28;20041;-66
2022/01/14 00:38:04;;;;;;;54.53;23.97;;;;;;;0.61;100.00;103757.66;5052948;28;20033;-67
2022/01/14 00:40:29;;;;;;;93.67;27.83;;;;;;;0.59;100.00;103759.09;5052983;28;20033;-66
2022/01/14 00:42:55;;;;;;;76.97;24.90;;;;;;;0.54;100.00;103750.88;5055945;28;20126;-66
2022/01/14 00:45:21;;;;;;;46.10;23.73;;;;;;;0.56;100.00;103749.44;5060610;28;20115;-66
2022/01/14 00:47:48;;;;;;;60.33;25.53;;;;;;;0.57;100.00;103742.69;5060598;28;20107;-66
2022/01/14 00:50:16;;;;;;;56.33;25.13;;;;;;;0.59;100.00;103742.13;5062062;28;20121;-66
2022/01/14 00:52:42;;;;;;;111.17;27.83;;;;;;;0.52;100.00;103731.03;5058794;28;20076;-66
2022/01/14 00:55:14;;;;;;;48.23;24.47;;;;;;;0.53;100.00;103730.28;5060905;28;20068;-66
2022/01/14 01:00:21;;;;;;;63.23;24.67;;;;;;;0.52;100.00;103721.69;5058384;28;20500;-66
2022/01/14 01:02:46;;;;;;;63.93;23.73;;;;;;;0.54;100.00;103719.38;5052371;28;20044;-66
2022/01/14 01:05:13;;;;;;;63.90;26.20;;;;;;;0.53;100.00;103713.34;5060930;28;20601;-66
2022/01/14 01:07:40;;;;;;;78.13;26.67;;;;;;;0.53;100.00;103709.88;5068642;28;20048;-66
2022/01/14 01:10:07;;;;;;;113.03;26.83;;;;;;;0.46;100.00;103711.69;5060046;28;20025;-66
2022/01/14 01:15:06;;;;;;;68.67;23.17;;;;;;;0.44;100.00;103702.03;5058866;28;20094;-66
2022/01/14 01:17:35;;;;;;;42.40;20.90;;;;;;;0.43;100.00;103708.75;5065681;28;20112;-66
2022/01/14 01:20:09;;;;;;;46.03;23.70;;;;;;;0.43;100.00;103713.84;5056462;28;20035;-67
2022/01/14 01:22:34;;;;;;;48.80;23.10;;;;;;;0.43;100.00;103697.66;5064650;28;20115;-66
2022/01/14 01:25:00;;;;;;;73.20;24.13;;;;;;;0.42;100.00;103699.28;5056896;28;20112;-67
2022/01/14 01:27:25;;;;;;;47.87;22.93;;;;;;;0.41;100.00;103702.59;5062190;28;20029;-66
2022/01/14 01:29:55;;;;;;;52.10;23.67;;;;;;;0.40;100.00;103715.13;5058951;28;20071;-66
2022/01/14 01:32:21;;;;;;;80.53;24.63;;;;;;;0.38;100.00;103707.28;5061491;28;20048;-66
2022/01/14 01:34:47;;;;;;;60.03;22.27;;;;;;;0.37;100.00;103709.66;5056504;28;20056;-66
2022/01/14 01:37:13;;;;;;;48.17;23.37;;;;;;;0.36;100.00;103703.66;5064310;28;20412;-66
2022/01/14 01:39:38;;;;;;;73.30;24.37;;;;;;;0.34;100.00;103694.94;5062091;28;20048;-66
2022/01/14 01:42:08;;;;;;;70.47;23.43;;;;;;;0.28;100.00;103689.06;5062561;28;20535;-66
2022/01/14 01:44:36;;;;;;;56.80;23.33;;;;;;;0.28;100.00;103700.19;5060007;28;20029;-66
2022/01/14 01:47:03;;;;;;;78.70;24.40;;;;;;;0.25;100.00;103694.72;5058347;28;20036;-66
2022/01/14 01:49:32;;;;;;;48.90;21.97;;;;;;;0.27;100.00;103702.56;5058057;28;20032;-66
2022/01/14 01:51:58;;;;;;;43.37;21.23;;;;;;;0.27;100.00;103698.34;5056845;28;20040;-66
2022/01/14 01:54:25;;;;;;;40.87;21.50;;;;;;;0.29;100.00;103696.00;5067442;28;20397;-66
2022/01/14 01:56:51;;;;;;;44.37;20.17;;;;;;;0.29;100.00;103685.81;5064078;28;20036;-66
2022/01/14 01:59:19;;;;;;;47.87;21.23;;;;;;;0.28;100.00;103691.63;5061404;28;20074;-66
2022/01/14 02:01:45;;;;;;;38.83;20.97;;;;;;;0.29;100.00;103696.91;5063862;28;20040;-66
2022/01/14 02:04:10;;;;;;;41.43;21.07;;;;;;;0.28;100.00;103699.28;5062752;28;20420;-67
2022/01/14 02:06:38;;;;;;;55.33;21.90;;;;;;;0.20;100.00;103701.81;5056567;28;20111;-66
2022/01/14 02:09:06;;;;;;;42.03;21.17;;;;;;;0.19;100.00;103701.63;5065212;28;20487;-66
2022/01/14 02:11:32;;;;;;;50.33;22.00;;;;;;;0.20;100.00;103699.25;5062232;28;20040;-66
2022/01/14 02:14:00;;;;;;;44.47;21.53;;;;;;;0.21;100.00;103698.56;5060784;28;20033;-66
2022/01/14 02:19:12;;;;;;;52.40;21.37;;;;;;;0.23;100.00;103684.31;5063174;28;20160;-66
2022/01/14 02:22:20;;;;;;;70.53;21.35;;;;;;;0.22;100.00;103685.06;5070212;28;20656;-67
2022/01/14 02:27:05;;;;;;;57.40;20.80;;;;;;;0.21;100.00;103682.31;5063032;28;20059;-66
2022/01/14 02:29:31;;;;;;;53.43;20.10;;;;;;;0.17;100.00;103678.50;5054726;28;20025;-66
2022/01/14 02:31:57;;;;;;;72.27;23.27;;;;;;;0.14;100.00;103675.59;5064441;28;20112;-67
2022/01/14 02:34:22;;;;;;;51.33;22.07;;;;;;;0.14;100.00;103665.38;5063904;28;20103;-66
2022/01/14 02:36:48;;;;;;;94.27;23.43;;;;;;;0.07;100.00;103665.38;5065837;28;20035;-66
2022/01/14 02:39:15;;;;;;;46.67;20.20;;;;;;;0.06;100.00;103671.19;5056238;28;20259;-66
2022/01/14 02:41:43;;;;;;;101.07;23.37;;;;;;;0.03;100.00;103671.72;5059699;28;20028;-66
2022/01/14 02:44:12;;;;;;;61.63;21.83;;;;;;;0.01;100.00;103674.81;5054795;28;20040;-66
2022/01/14 02:46:42;;;;;;;47.63;21.67;;;;;;;0.01;100.00;103664.63;5061037;28;20029;-66
2022/01/14 02:49:08;;;;;;;39.50;21.03;;;;;;;0.03;100.00;103670.81;5062927;28;20090;-66
2022/01/14 02:51:34;;;;;;;42.63;21.97;;;;;;;0.06;100.00;103671.19;5054553;28;20284;-66
2022/01/14 02:54:12;;;;;;;53.43;21.27;;;;;;;0.04;100.00;103662.41;5060423;28;20024;-67
2022/01/14 02:56:42;;;;;;;39.53;20.67;;;;;;;0.06;100.00;103663.53;5056429;28;20469;-66
2022/01/14 02:59:09;;;;;;;51.27;22.10;;;;;;;0.06;100.00;103666.06;5064212;28;20108;-66
2022/01/14 03:01:35;;;;;;;45.67;21.80;;;;;;;0.07;100.00;103662.81;5055037;28;20025;-66
2022/01/14 03:04:02;;;;;;;46.20;20.53;;;;;;;0.07;100.00;103658.59;5061409;28;20478;-66
2022/01/14 03:06:28;;;;;;;39.47;20.70;;;;;;;0.09;100.00;103658.81;5053759;28;20043;-66
2022/01/14 03:08:54;;;;;;;38.17;21.73;;;;;;;0.11;100.00;103659.88;5061577;28;20025;-66
2022/01/14 03:11:26;;;;;;;51.63;20.97;;;;;;;0.09;100.00;103656.25;5057561;28;20070;-66
2022/01/14 03:13:51;;;;;;;40.87;19.73;;;;;;;0.07;100.00;103663.69;5054796;28;20510;-67
2022/01/14 03:16:20;;;;;;;34.17;19.43;;;;;;;0.07;100.00;103666.25;5054752;28;20029;-67
2022/01/14 03:18:50;;;;;;;35.13;19.57;;;;;;;0.07;100.00;103662.81;5064292;28;20614;-66
2022/01/14 03:21:17;;;;;;;33.47;19.60;;;;;;;0.07;100.00;103660.25;5061460;28;20544;-66
2022/01/14 03:23:48;;;;;;;34.10;20.17;;;;;;;0.08;100.00;103667.19;5055682;28;20098;-66
2022/01/14 03:26:20;;;;;;;31.33;18.70;;;;;;;0.08;100.00;103655.34;5060335;28;20036;-66
2022/01/14 03:28:47;;;;;;;41.33;19.10;;;;;;;0.10;100.00;103663.19;5054012;28;20032;-65
2022/01/14 03:31:12;;;;;;;37.10;19.27;;;;;;;0.10;100.00;103668.28;5058358;28;20024;-67
2022/01/14 03:33:38;;;;;;;54.53;19.80;;;;;;;0.07;100.00;103667.91;5059269;28;20027;-66
2022/01/14 03:36:05;;;;;;;56.60;19.07;;;;;;;-0.02;100.00;103660.97;5060927;28;20366;-66
2022/01/14 03:38:31;;;;;;;62.03;19.17;;;;;;;-0.04;100.00;103659.88;5052745;28;20496;-66
2022/01/14 03:40:57;;;;;;;69.03;20.13;;;;;;;-0.08;100.00;103657.69;5058935;28;20024;-66
2022/01/14 03:43:22;;;;;;;72.40;20.70;;;;;;;-0.12;100.00;103647.81;5058569;28;20194;-66
2022/01/14 03:45:49;;;;;;;35.87;19.80;;;;;;;-0.12;100.00;103655.47;5059550;28;20039;-67
2022/01/14 03:48:15;;;;;;;77.47;22.10;;;;;;;-0.14;100.00;103655.31;5056486;28;20483;-67
2022/01/14 03:50:41;;;;;;;43.73;19.70;;;;;;;-0.13;100.00;103654.56;5063894;28;20516;-66
2022/01/14 03:53:07;;;;;;;43.47;20.10;;;;;;;-0.09;100.00;103653.28;5061245;28;20031;-66
2022/01/14 03:55:33;;;;;;;41.80;20.10;;;;;;;-0.07;100.00;103659.50;5055744;28;20025;-66
2022/01/14 03:57:58;;;;;;;67.70;21.33;;;;;;;-0.07;100.00;103645.84;5060250;28;20093;-66
2022/01/14 04:00:24;;;;;;;38.93;19.73;;;;;;;-0.05;100.00;103654.56;5052348;28;20040;-66
2022/01/14 04:02:49;;;;;;;56.40;20.17;;;;;;;-0.04;100.00;103654.78;5058113;28;20052;-66
2022/01/14 04:05:16;;;;;;;38.07;19.70;;;;;;;-0.02;100.00;103650.75;5064364;28;20064;-66
2022/01/14 04:07:42;;;;;;;50.13;19.63;;;;;;;-0.02;100.00;103652.41;5063398;28;20033;-66
2022/01/14 04:10:11;;;;;;;49.97;19.37;;;;;;;-0.03;100.00;103648.94;5051921;28;20029;-66
2022/01/14 04:12:50;;;;;;;39.60;20.23;;;;;;;-0.03;100.00;103648.94;5060956;28;20035;-66
2022/01/14 04:18:02;;;;;;;50.83;19.03;;;;;;;-0.04;100.00;103639.50;5057329;28;20044;-67
2022/01/14 04:20:28;;;;;;;101.10;20.93;;;;;;;-0.09;100.00;103642.22;5058752;28;20447;-66
2022/01/14 04:22:54;;;;;;;33.37;19.30;;;;;;;-0.07;100.00;103650.97;5057328;28;20033;-66
2022/01/14 04:25:21;;;;;;;45.30;20.80;;;;;;;-0.08;100.00;103642.38;5054350;28;20092;-66
2022/01/14 04:27:46;;;;;;;72.00;21.40;;;;;;;-0.09;100.00;103638.00;5055683;28;20069;-66
2022/01/14 04:30:12;;;;;;;34.67;19.77;;;;;;;-0.10;100.00;103631.09;5059903;28;20056;-66
2022/01/14 04:32:38;;;;;;;78.40;21.00;;;;;;;-0.14;100.00;103631.44;5054427;28;20020;-66
2022/01/14 04:35:04;;;;;;;44.40;18.73;;;;;;;-0.15;100.00;103634.72;5061244;28;20024;-66
2022/01/14 04:37:29;;;;;;;33.50;18.20;;;;;;;-0.16;100.00;103636.34;5055787;28;20035;-66
2022/01/14 04:39:55;;;;;;;39.57;19.37;;;;;;;-0.14;100.00;103642.56;5062863;28;20461;-66
2022/01/14 04:42:20;;;;;;;81.20;19.83;;;;;;;-0.13;100.00;103640.91;5052064;28;20033;-66
2022/01/14 04:44:45;;;;;;;74.57;19.67;;;;;;;-0.15;100.00;103634.72;5065845;28;20031;-67
2022/01/14 04:47:17;;;;;;;39.63;19.17;;;;;;;-0.22;100.00;103627.06;5054542;28;20530;-67
2022/01/14 04:49:43;;;;;;;69.53;19.87;;;;;;;-0.25;100.00;103622.47;5070757;28;20059;-66
2022/01/14 04:52:08;;;;;;;107.93;21.43;;;;;;;-0.32;100.00;103618.28;5059785;28;20389;-66
2022/01/14 04:54:35;;;;;;;44.27;18.67;;;;;;;-0.29;100.00;103620.31;5061907;28;20021;-66
2022/01/14 04:57:01;;;;;;;46.57;18.83;;;;;;;-0.27;100.00;103623.97;5058210;28;20361;-65
2022/01/14 04:59:26;;;;;;;66.27;19.50;;;;;;;-0.30;100.00;103606.66;5060303;28;20131;-66
2022/01/14 05:01:51;;;;;;;34.80;19.60;;;;;;;-0.31;100.00;103604.84;5063554;28;20020;-66
2022/01/14 05:04:17;;;;;;;58.17;19.87;;;;;;;-0.27;100.00;103594.25;5062870;28;20052;-66
2022/01/14 05:06:46;;;;;;;39.03;19.67;;;;;;;-0.27;100.00;103594.25;5059159;28;20035;-66
2022/01/14 05:09:21;;;;;;;34.47;19.17;;;;;;;-0.25;100.00;103599.53;5061800;28;20042;-66
2022/01/14 05:11:53;;;;;;;34.33;18.37;;;;;;;-0.25;100.00;103587.72;5068974;28;20051;-66
2022/01/14 05:14:18;;;;;;;37.87;19.37;;;;;;;-0.26;100.00;103590.09;5061104;28;20473;-66
2022/01/14 05:16:44;;;;;;;70.00;19.33;;;;;;;-0.26;100.00;103591.00;5069358;28;20154;-66
2022/01/14 05:19:09;;;;;;;32.60;17.87;;;;;;;-0.27;100.00;103598.47;5060801;28;20111;-66
2022/01/14 05:21:35;;;;;;;36.43;17.57;;;;;;;-0.29;100.00;103590.59;5062813;28;20028;-66
2022/01/14 05:24:00;;;;;;;81.03;19.00;;;;;;;-0.33;100.00;103588.44;5058951;28;20017;-66
2022/01/14 05:26:25;;;;;;;29.80;17.40;;;;;;;-0.33;100.00;103588.44;5061609;28;20027;-66
2022/01/14 05:28:51;;;;;;;62.67;18.67;;;;;;;-0.35;100.00;103592.44;5057641;28;20028;-66
2022/01/14 05:31:16;;;;;;;38.27;17.43;;;;;;;-0.35;100.00;103592.44;5061376;28;20043;-66
2022/01/14 05:33:46;;;;;;;45.60;16.57;;;;;;;-0.34;100.00;103595.91;5062397;28;20384;-66
2022/01/14 05:36:11;;;;;;;65.30;18.27;;;;;;;-0.41;100.00;103590.06;5059603;28;20025;-66
2022/01/14 05:38:36;;;;;;;68.07;18.50;;;;;;;-0.42;100.00;103592.41;5060268;28;20050;-66
2022/01/14 05:41:02;;;;;;;29.27;16.37;;;;;;;-0.42;100.00;103595.88;5063103;28;20528;-66
2022/01/14 05:43:27;;;;;;;29.33;17.97;;;;;;;-0.41;100.00;103595.16;5065220;28;20029;-66
2022/01/14 05:45:52;;;;;;;71.67;19.43;;;;;;;-0.42;100.00;103592.41;5061352;28;20032;-66
2022/01/14 05:48:18;;;;;;;29.53;17.30;;;;;;;-0.47;100.00;103584.22;5066256;28;20137;-66
2022/01/14 05:50:43;;;;;;;43.40;19.00;;;;;;;-0.50;100.00;103584.75;5059338;28;20035;-66
2022/01/14 05:53:09;;;;;;;29.90;17.37;;;;;;;-0.49;100.00;103580.56;5068084;28;20027;-66
2022/01/14 05:55:34;;;;;;;57.97;20.13;;;;;;;-0.49;100.00;103580.56;5056900;28;20094;-66
2022/01/14 05:58:00;;;;;;;48.83;19.07;;;;;;;-0.53;100.00;103579.28;5064889;28;20029;-66
2022/01/14 06:00:25;;;;;;;33.37;18.87;;;;;;;-0.58;100.00;103569.25;5054152;28;20524;-66
2022/01/14 06:02:51;;;;;;;34.13;17.50;;;;;;;-0.57;100.00;103574.53;5066204;28;20058;-66
2022/01/14 06:05:18;;;;;;;34.57;19.03;;;;;;;-0.55;100.00;103572.16;5052653;28;20052;-67
2022/01/14 06:07:43;;;;;;;72.57;20.57;;;;;;;-0.58;100.00;103570.19;5062758;28;20044;-66
2022/01/14 06:10:09;;;;;;;41.10;19.73;;;;;;;-0.58;100.00;103580.38;5058748;28;20024;-66
2022/01/14 06:12:35;;;;;;;73.37;21.63;;;;;;;-0.59;100.00;103583.63;5060389;28;20025;-66
2022/01/14 06:15:01;;;;;;;86.20;22.30;;;;;;;-0.59;100.00;103588.72;5056377;28;20496;-66
2022/01/14 06:17:26;;;;;;;41.97;20.57;;;;;;;-0.60;100.00;103594.56;5060538;28;20090;-66
2022/01/14 06:19:51;;;;;;;34.30;19.73;;;;;;;-0.58;100.00;103600.75;5062495;28;20464;-66
2022/01/14 06:22:17;;;;;;;36.50;18.80;;;;;;;-0.61;100.00;103591.09;5067563;28;20029;-66
2022/01/14 06:24:42;;;;;;;46.97;20.70;;;;;;;-0.61;100.00;103595.25;5062315;28;20025;-66
2022/01/14 06:27:08;;;;;;;35.07;19.73;;;;;;;-0.61;100.00;103596.19;5064399;28;20085;-66
2022/01/14 06:29:33;;;;;;;47.27;21.23;;;;;;;-0.61;100.00;103606.38;5061320;28;20069;-66
2022/01/14 06:31:58;;;;;;;47.93;22.13;;;;;;;-0.59;100.00;103598.91;5061694;28;20032;-66
2022/01/14 06:34:24;;;;;;;66.50;22.57;;;;;;;-0.57;100.00;103586.34;5069869;28;20029;-66
2022/01/14 06:36:49;;;;;;;33.90;20.03;;;;;;;-0.57;100.00;103587.28;5059962;28;20029;-66
2022/01/14 06:39:14;;;;;;;53.30;20.33;;;;;;;-0.61;100.00;103595.25;5058149;28;20029;-66
2022/01/14 06:41:40;;;;;;;44.37;20.70;;;;;;;-0.63;100.00;103586.53;5061885;28;20374;-66
2022/01/14 06:44:06;;;;;;;34.37;19.77;;;;;;;-0.62;100.00;103576.53;5055932;28;20084;-66
2022/01/14 06:46:32;;;;;;;38.63;21.50;;;;;;;-0.62;100.00;103583.25;5060191;28;20029;-66
2022/01/14 06:48:57;;;;;;;60.60;20.17;;;;;;;-0.68;100.00;103578.31;5053602;28;20036;-66
2022/01/14 06:51:22;;;;;;;40.60;21.17;;;;;;;-0.69;100.00;103583.22;5061738;28;20025;-66
2022/01/14 06:53:48;;;;;;;38.00;19.47;;;;;;;-0.68;100.00;103582.50;5053311;28;20025;-66
2022/01/14 06:56:14;;;;;;;31.80;20.23;;;;;;;-0.64;100.00;103580.53;5061212;28;20024;-66
2022/01/14 06:58:41;;;;;;;34.57;20.73;;;;;;;-0.62;100.00;103588.34;5058212;28;20032;-66
2022/01/14 07:01:06;;;;;;;41.07;21.17;;;;;;;-0.61;100.00;103585.06;5058686;28;20025;-66
2022/01/14 07:03:31;;;;;;;41.37;20.93;;;;;;;-0.62;100.00;103583.25;5063451;28;20490;-66
2022/01/14 07:05:57;;;;;;;36.37;20.87;;;;;;;-0.58;100.00;103585.47;5059298;28;20060;-66
2022/01/14 07:08:22;;;;;;;37.40;21.37;;;;;;;-0.58;100.00;103590.56;5060976;28;20103;-66
2022/01/14 07:10:48;;;;;;;41.27;21.77;;;;;;;-0.57;100.00;103582.19;5061894;28;20063;-66
2022/01/14 07:13:13;;;;;;;41.77;22.83;;;;;;;-0.55;100.00;103585.84;5058927;28;20513;-65
2022/01/14 07:15:38;;;;;;;39.20;22.87;;;;;;;-0.51;100.00;103585.50;5058825;28;20036;-66
2022/01/14 07:18:04;;;;;;;41.57;22.00;;;;;;;-0.49;100.00;103580.56;5062969;28;20090;-65
2022/01/14 07:20:29;;;;;;;40.83;21.30;;;;;;;-0.49;100.00;103596.75;5054292;28;20032;-66
2022/01/14 07:22:54;;;;;;;48.63;22.13;;;;;;;-0.49;100.00;103601.84;5063021;28;20046;-66
2022/01/14 07:25:20;;;;;;;44.67;21.90;;;;;;;-0.49;100.00;103596.75;5063214;28;20031;-66
2022/01/14 07:27:46;;;;;;;43.70;21.30;;;;;;;-0.55;100.00;103590.94;5064547;28;20147;-65
2022/01/14 07:30:14;;;;;;;44.17;22.03;;;;;;;-0.55;100.00;103595.09;5054157;28;20140;-66
2022/01/14 07:32:40;;;;;;;48.97;23.93;;;;;;;-0.58;100.00;103595.66;5060088;28;20040;-66
2022/01/14 07:35:06;;;;;;;45.00;23.53;;;;;;;-0.58;100.00;103595.66;5050218;28;20039;-66
2022/01/14 07:37:31;;;;;;;40.30;22.73;;;;;;;-0.56;100.00;103595.84;5057256;28;20077;-66
2022/01/14 07:39:57;;;;;;;41.20;23.30;;;;;;;-0.53;100.00;103606.41;5054325;28;20506;-65
2022/01/14 07:42:22;;;;;;;43.57;23.30;;;;;;;-0.56;100.00;103599.31;5056169;28;20503;-66
2022/01/14 07:44:48;;;;;;;46.57;24.97;;;;;;;-0.58;100.00;103604.94;5060143;28;20059;-66
2022/01/14 07:47:13;;;;;;;107.70;27.63;;;;;;;-0.58;100.00;103607.47;5065884;28;20028;-66
2022/01/14 07:49:38;;;;;;;44.27;23.30;;;;;;;-0.59;100.00;103605.66;5061207;28;20127;-66
2022/01/14 07:52:04;;;;;;;44.73;25.33;;;;;;;-0.57;100.00;103607.66;5061306;28;20461;-66
2022/01/14 07:54:30;;;;;;;43.73;25.03;;;;;;;-0.54;100.00;103605.47;5061524;28;20040;-65
2022/01/14 07:56:58;;;;;;;53.03;23.67;;;;;;;-0.52;100.00;103592.94;5053585;28;20048;-66
2022/01/14 07:59:27;;;;;;;63.83;25.07;;;;;;;-0.55;100.00;103590.94;5057135;28;20017;-66
2022/01/14 08:01:58;;;;;;;71.43;25.70;;;;;;;-0.59;100.00;103598.03;5053750;28;20424;-66
2022/01/14 08:04:23;;;;;;;41.45;24.70;;;;;;;-0.57;100.00;103607.66;5056108;28;20029;-66
2022/01/14 08:06:51;;;;;;;45.07;25.23;;;;;;;-0.53;100.00;103614.03;5050642;28;20025;-66
2022/01/14 08:09:18;;;;;;;61.60;24.77;;;;;;;-0.52;100.00;103604.03;5060529;28;20473;-65
2022/01/14 08:11:45;;;;;;;43.13;25.50;;;;;;;-0.52;100.00;103601.47;5055374;28;20082;-66
2022/01/14 08:14:11;;;;;;;41.47;24.10;;;;;;;-0.51;100.00;103600.78;5058710;28;20436;-66
2022/01/14 08:16:37;;;;;;;41.33;23.77;;;;;;;-0.49;100.00;103585.66;5053842;28;20078;-66
2022/01/14 08:19:02;;;;;;;77.27;25.23;;;;;;;-0.50;100.00;103584.75;5057623;28;20033;-66
2022/01/14 08:21:28;;;;;;;46.17;24.47;;;;;;;-0.51;100.00;103571.81;5060324;28;20111;-66
2022/01/14 08:23:53;;;;;;;62.77;25.80;;;;;;;-0.53;100.00;103574.19;5055148;28;20028;-66
2022/01/14 08:26:19;;;;;;;44.50;26.13;;;;;;;-0.51;100.00;103579.47;5057772;28;20393;-65
2022/01/14 08:28:44;;;;;;;51.20;25.60;;;;;;;-0.51;100.00;103597.31;5057712;28;20478;-65
2022/01/14 08:31:09;;;;;;;46.60;25.57;;;;;;;-0.51;100.00;103590.59;5056092;28;20031;-66
2022/01/14 08:33:35;;;;;;;45.73;26.13;;;;;;;-0.46;100.00;103590.22;5059635;28;20471;-66
2022/01/14 08:36:01;;;;;;;48.70;25.57;;;;;;;-0.44;100.00;103609.16;5060300;28;20356;-65
2022/01/14 08:38:26;;;;;;;43.30;25.20;;;;;;;-0.39;100.00;103587.69;5053054;28;20247;-66
2022/01/14 08:40:52;;;;;;;45.90;25.63;;;;;;;-0.44;100.00;103599.88;5058022;28;20048;-66
2022/01/14 08:43:17;;;;;;;45.10;26.20;;;;;;;-0.42;100.00;103607.72;5054649;28;20086;-66
2022/01/14 08:45:43;;;;;;;48.30;24.50;;;;;;;-0.47;100.00;103603.69;5060481;28;20253;-66
2022/01/14 08:48:09;;;;;;;50.70;25.60;;;;;;;-0.46;100.00;103624.25;5056871;28;20048;-66
2022/01/14 08:50:37;;;;;;;67.10;25.60;;;;;;;-0.45;100.00;103615.88;5059679;28;20047;-66
2022/01/14 08:53:04;;;;;;;44.73;25.80;;;;;;;-0.43;100.00;103605.91;5050101;28;20465;-66
2022/01/14 08:55:29;;;;;;;62.47;25.27;;;;;;;-0.43;100.00;103600.81;5060705;28;20063;-65
2022/01/14 08:57:55;;;;;;;43.90;24.97;;;;;;;-0.39;100.00;103592.78;5058271;28;20028;-65
2022/01/14 09:00:22;;;;;;;47.00;26.63;;;;;;;-0.39;100.00;103580.03;5056773;28;20515;-65
2022/01/14 09:02:48;;;;;;;45.53;26.33;;;;;;;-0.36;100.00;103585.53;5058405;28;20025;-66
2022/01/14 09:05:13;;;;;;;48.50;26.60;;;;;;;-0.32;100.00;103585.16;5054638;28;20421;-66
2022/01/14 09:07:39;;;;;;;45.87;26.87;;;;;;;-0.28;100.00;103589.91;5057697;28;20086;-65
2022/01/14 09:10:07;;;;;;;47.17;25.70;;;;;;;-0.26;100.00;103610.47;5053394;28;20021;-66
2022/01/14 09:12:34;;;;;;;60.83;26.83;;;;;;;-0.25;100.00;103600.47;5056920;28;20133;-65
2022/01/14 09:15:00;;;;;;;45.33;25.73;;;;;;;-0.21;100.00;103605.91;5052135;28;20236;-66
2022/01/14 09:17:26;;;;;;;89.77;27.27;;;;;;;-0.19;100.00;103585.00;5065704;28;20036;-66
2022/01/14 09:19:51;;;;;;;58.63;26.33;;;;;;;-0.23;100.00;103592.09;5050820;28;20079;-66
2022/01/14 09:22:18;;;;;;;50.30;26.87;;;;;;;-0.26;100.00;103578.25;5060696;28;20115;-66
2022/01/14 09:24:45;;;;;;;46.77;27.43;;;;;;;-0.25;100.00;103600.47;5055745;28;20031;-65
2022/01/14 09:27:11;;;;;;;58.33;28.73;;;;;;;-0.22;100.00;103597.38;5060154;28;20102;-66
2022/01/14 09:29:36;;;;;;;53.43;27.80;;;;;;;-0.19;100.00;103596.81;5057142;28;20024;-65
2022/01/14 09:32:01;;;;;;;45.60;27.53;;;;;;;-0.15;100.00;103602.50;5060933;28;20025;-66
2022/01/14 09:34:27;;;;;;;76.47;29.70;;;;;;;-0.10;100.00;103592.84;5058235;28;20050;-66
2022/01/14 09:36:52;;;;;;;49.57;27.13;;;;;;;-0.06;100.00;103599.22;5059352;28;20037;-65
2022/01/14 09:39:17;;;;;;;44.80;28.53;;;;;;;0.00;100.00;103607.63;5061303;28;20075;-66
2022/01/14 09:41:43;;;;;;;55.20;29.13;;;;;;;0.02;100.00;103618.00;5059149;28;20029;-65
2022/01/14 09:44:08;;;;;;;63.43;27.87;;;;;;;0.01;100.00;103613.59;5066030;28;20025;-66
2022/01/14 09:46:34;;;;;;;46.17;29.43;;;;;;;0.01;100.00;103611.97;5060258;28;20029;-66
2022/01/14 09:48:59;;;;;;;55.07;30.03;;;;;;;0.05;100.00;103613.25;5065704;28;20064;-66
2022/01/14 09:51:25;;;;;;;52.27;28.90;;;;;;;0.07;100.00;103620.34;5056084;28;20577;-66
2022/01/14 09:53:50;;;;;;;48.43;30.07;;;;;;;0.09;100.00;103623.13;5060022;28;20384;-66
2022/01/14 09:56:18;;;;;;;48.60;29.67;;;;;;;0.14;100.00;103624.56;5055316;28;20029;-65
2022/01/14 09:58:47;;;;;;;45.07;28.30;;;;;;;0.17;100.00;103630.03;5059648;28;20404;-66
2022/01/14 10:01:22;;;;;;;49.07;30.37;;;;;;;0.21;100.00;103633.84;5053549;28;20029;-65
2022/01/14 10:04:02;;;;;;;48.63;29.30;;;;;;;0.22;100.00;103623.84;5059757;28;20037;-66
2022/01/14 10:06:33;;;;;;;71.60;29.93;;;;;;;0.27;100.00;103628.59;5054937;28;20473;-66
2022/01/14 10:09:39;;;;;;;50.90;31.17;;;;;;;0.26;100.00;103624.19;5059757;28;20036;-66
2022/01/14 10:12:13;;;;;;;47.17;29.17;;;;;;;0.27;100.00;103639.66;5084490;28;20134;-66
2022/01/14 10:14:40;;;;;;;47.03;29.17;;;;;;;0.29;100.00;103630.56;5086874;28;20264;-66
2022/01/14 10:17:08;;;;;;;50.53;28.30;;;;;;;0.33;100.00;103634.41;5083500;28;20108;-65
2022/01/14 10:19:40;;;;;;;47.23;28.20;;;;;;;0.33;100.00;103635.31;5048320;28;20032;-67
2022/01/14 10:22:25;;;;;;;51.50;31.37;;;;;;;0.37;100.00;103636.59;5084179;28;20039;-66
2022/01/14 10:25:08;;;;;;;47.50;28.50;;;;;;;0.38;100.00;103635.84;5065595;28;20540;-65
2022/01/14 10:27:44;;;;;;;49.20;28.83;;;;;;;0.42;100.00;103632.03;5079230;28;20683;-66
2022/01/14 10:30:14;;;;;;;46.73;29.13;;;;;;;0.45;100.00;103633.31;5070829;28;20386;-65
2022/01/14 10:32:41;;;;;;;53.50;30.67;;;;;;;0.47;100.00;103629.28;5075737;28;20037;-66
2022/01/14 10:35:10;;;;;;;62.43;31.60;;;;;;;0.47;100.00;103631.84;5074913;28;20375;-66
2022/01/14 10:37:36;;;;;;;57.27;30.47;;;;;;;0.44;100.00;103616.19;5082304;28;20050;-66
2022/01/14 10:40:04;;;;;;;49.63;30.40;;;;;;;0.42;100.00;103625.28;5086060;28;20471;-65
2022/01/14 10:42:34;;;;;;;55.10;32.60;;;;;;;0.44;100.00;103616.19;5076240;28;20588;-66
2022/01/14 10:45:27;;;;;;;53.43;30.23;;;;;;;0.47;100.00;103613.97;5071024;28;20081;-66
2022/01/14 10:47:58;;;;;;;53.10;30.90;;;;;;;0.52;100.00;103623.81;5075302;28;20115;-66
2022/01/14 10:50:27;;;;;;;55.37;33.40;;;;;;;0.55;100.00;103616.53;5061833;28;20032;-65
2022/01/14 10:52:53;;;;;;;52.57;32.17;;;;;;;0.59;100.00;103616.16;5057372;28;20036;-66
2022/01/14 10:55:28;;;;;;;52.50;33.20;;;;;;;0.64;100.00;103609.97;5056217;28;20024;-66
2022/01/14 10:57:53;;;;;;;54.60;31.30;;;;;;;0.66;100.00;103611.06;5055865;28;20070;-66
2022/01/14 11:00:20;;;;;;;52.97;30.37;;;;;;;0.70;100.00;103610.66;5060647;28;20028;-66
2022/01/14 11:02:46;;;;;;;45.77;29.53;;;;;;;0.74;100.00;103609.38;5061286;28;20040;-66
2022/01/14 11:05:17;;;;;;;50.77;30.33;;;;;;;0.79;100.00;103604.81;5057184;28;20052;-66
2022/01/14 11:07:44;;;;;;;48.75;31.42;;;;;;;0.83;100.00;103592.59;5058964;28;20058;-66
2022/01/14 11:10:25;;;;;;;54.40;31.73;;;;;;;0.87;100.00;103596.41;5061260;28;20136;-66
2022/01/14 11:12:54;;;;;;;49.90;30.30;;;;;;;0.89;100.00;103594.94;5049835;28;20025;-66
2022/01/14 11:15:21;;;;;;;48.97;30.87;;;;;;;0.93;100.00;103593.66;5049418;28;20032;-66
2022/01/14 11:17:52;;;;;;;56.97;32.67;;;;;;;0.97;100.00;103592.38;5062110;28;20152;-66
2022/01/14 11:20:25;;;;;;;50.17;32.35;;;;;;;1.01;100.00;103592.00;5050288;28;20021;-66
2022/01/14 11:25:43;;;;;;;48.67;31.40;;;;;;;1.08;100.00;103585.19;5056946;28;20348;-66
2022/01/14 11:28:09;;;;;;;50.57;31.80;;;;;;;1.13;100.00;103589.94;5068684;28;20460;-66